sensor_id;sensor_type;location;lat;lon;timestamp;P1;P2;P0
74436;PMS7003;62868;52.360;30.424;2023-04-30T00:01:32;0;0;0
74436;PMS7003;62868;52.360;30.424;2023-04-30T00:06:32;0;0;0
74436;PMS7003;62868;52.360;30.424;2023-04-30T00:11:44;0;0;0
74436;PMS7003;62868;52.360;30.424;2023-04-30T00:16:58;0;0;0
74436;PMS7003;62868;52.360;30.424;2023-04-30T00:21:56;0;0;0
74436;PMS7003;62868;52.360;30.424;2023-04-30T00:26:30;0;0;0
74436;PMS7003;62868;52.360;30.424;2023-04-30T00:31:56;0;0;0
74436;PMS7003;62868;52.360;30.424;2023-04-30T00:36:48;0;0;0
74436;PMS7003;62868;52.360;30.424;2023-04-30T00:41:36;0.3;0;0
74436;PMS7003;62868;52.360;30.424;2023-04-30T00:46:16;0;0;0
74436;PMS7003;62868;52.360;30.424;2023-04-30T00:51:56;0.7;0;0
74436;PMS7003;62868;52.360;30.424;2023-04-30T00:56:10;0;0;0
74436;PMS7003;62868;52.360;30.424;2023-04-30T01:01:30;0;0;0
74436;PMS7003;62868;52.360;30.424;2023-04-30T01:06:56;0;0;0
74436;PMS7003;62868;52.360;30.424;2023-04-30T01:11:37;0;0;0
74436;PMS7003;62868;52.360;30.424;2023-04-30T01:16:50;0;0;0
74436;PMS7003;62868;52.360;30.424;2023-04-30T01:21:22;0;0;0
74436;PMS7003;62868;52.360;30.424;2023-04-30T01:26:12;0.7;0;0
74436;PMS7003;62868;52.360;30.424;2023-04-30T01:31:48;0.3;0;0
74436;PMS7003;62868;52.360;30.424;2023-04-30T01:36:38;0;0;0
74436;PMS7003;62868;52.360;30.424;2023-04-30T01:41:19;0;0;0
74436;PMS7003;62868;52.360;30.424;2023-04-30T01:46:45;0;0;0
74436;PMS7003;62868;52.360;30.424;2023-04-30T01:51:59;0;0;0
74436;PMS7003;62868;52.360;30.424;2023-04-30T01:56:31;0;0;0
74436;PMS7003;62868;52.360;30.424;2023-04-30T02:01:35;0;0;0
74436;PMS7003;62868;52.360;30.424;2023-04-30T02:06:48;0;0;0
74436;PMS7003;62868;52.360;30.424;2023-04-30T02:11:57;0.3;0;0
74436;PMS7003;62868;52.360;30.424;2023-04-30T02:16:35;0;0;0
74436;PMS7003;62868;52.360;30.424;2023-04-30T02:21:11;0;0;0
74436;PMS7003;62868;52.360;30.424;2023-04-30T02:26:57;0.7;0;0
74436;PMS7003;62868;52.360;30.424;2023-04-30T02:31:35;0;0;0
74436;PMS7003;62868;52.360;30.424;2023-04-30T02:36:10;0.3;0;0
74436;PMS7003;62868;52.360;30.424;2023-04-30T02:41:28;0;0;0
74436;PMS7003;62868;52.360;30.424;2023-04-30T02:46:57;0;0;0
74436;PMS7003;62868;52.360;30.424;2023-04-30T02:51:11;0;0;0
74436;PMS7003;62868;52.360;30.424;2023-04-30T02:56:57;0;0;0
74436;PMS7003;62868;52.360;30.424;2023-04-30T03:01:57;0;0;0
74436;PMS7003;62868;52.360;30.424;2023-04-30T03:06:11;0;0;0
74436;PMS7003;62868;52.360;30.424;2023-04-30T03:11:11;0;0;0
74436;PMS7003;62868;52.360;30.424;2023-04-30T03:16:43;0.3;0;0
74436;PMS7003;62868;52.360;30.424;2023-04-30T03:21:43;0;0;0
74436;PMS7003;62868;52.360;30.424;2023-04-30T03:26:57;0;0;0
74436;PMS7003;62868;52.360;30.424;2023-04-30T03:31:35;0.3;0;0
74436;PMS7003;62868;52.360;30.424;2023-04-30T03:36:57;0;0;0
74436;PMS7003;62868;52.360;30.424;2023-04-30T03:41:43;0;0;0
74436;PMS7003;62868;52.360;30.424;2023-04-30T03:46:11;0;0;0
74436;PMS7003;62868;52.360;30.424;2023-04-30T03:51:57;0.3;0;0
74436;PMS7003;62868;52.360;30.424;2023-04-30T03:56:57;0.3;0;0
74436;PMS7003;62868;52.360;30.424;2023-04-30T04:01:49;0;0;0
74436;PMS7003;62868;52.360;30.424;2023-04-30T04:06:43;0;0;0
74436;PMS7003;62868;52.360;30.424;2023-04-30T04:11:37;0.3;0;0
74436;PMS7003;62868;52.360;30.424;2023-04-30T04:16:35;0.3;0;0
74436;PMS7003;62868;52.360;30.424;2023-04-30T04:21:41;0;0;0
74436;PMS7003;62868;52.360;30.424;2023-04-30T04:26:35;0;0;0
74436;PMS7003;62868;52.360;30.424;2023-04-30T04:31:23;0.3;0.3;0
74436;PMS7003;62868;52.360;30.424;2023-04-30T04:36:57;0.3;0.3;0.3
74436;PMS7003;62868;52.360;30.424;2023-04-30T04:41:57;1;0.7;0.7
74436;PMS7003;62868;52.360;30.424;2023-04-30T04:46:11;2.3;2;1.7
74436;PMS7003;62868;52.360;30.424;2023-04-30T04:51:43;3.3;3.3;2.8
74436;PMS7003;62868;52.360;30.424;2023-04-30T04:56:13;1.7;1.7;1.7
74436;PMS7003;62868;52.360;30.424;2023-04-30T05:01:43;2.3;1.7;1.3
74436;PMS7003;62868;52.360;30.424;2023-04-30T05:06:19;1.3;1;0.7
74436;PMS7003;62868;52.360;30.424;2023-04-30T05:11:43;0.5;0.5;0.3
74436;PMS7003;62868;52.360;30.424;2023-04-30T05:16:57;0;0;0
74436;PMS7003;62868;52.360;30.424;2023-04-30T05:21:57;0.7;0.3;0.3
74436;PMS7003;62868;52.360;30.424;2023-04-30T05:26:29;4.3;3.8;3
74436;PMS7003;62868;52.360;30.424;2023-04-30T05:31:57;4.7;4;3.3
74436;PMS7003;62868;52.360;30.424;2023-04-30T05:36:47;1.3;1.3;1
74436;PMS7003;62868;52.360;30.424;2023-04-30T05:41:11;0.3;0;0
74436;PMS7003;62868;52.360;30.424;2023-04-30T05:46:29;0;0;0
74436;PMS7003;62868;52.360;30.424;2023-04-30T05:51:57;0;0;0
74436;PMS7003;62868;52.360;30.424;2023-04-30T05:56:23;0;0;0
74436;PMS7003;62868;52.360;30.424;2023-04-30T06:01:41;0;0;0
74436;PMS7003;62868;52.360;30.424;2023-04-30T06:06:55;0;0;0
74436;PMS7003;62868;52.360;30.424;2023-04-30T06:11:19;0;0;0
74436;PMS7003;62868;52.360;30.424;2023-04-30T06:16:41;0;0;0
74436;PMS7003;62868;52.360;30.424;2023-04-30T06:21:35;0;0;0
74436;PMS7003;62868;52.360;30.424;2023-04-30T06:26:11;0.5;0;0
74436;PMS7003;62868;52.360;30.424;2023-04-30T06:31:37;0.7;0.3;0
74436;PMS7003;62868;52.360;30.424;2023-04-30T06:36:35;0.3;0;0
74436;PMS7003;62868;52.360;30.424;2023-04-30T06:41:29;0;0;0
74436;PMS7003;62868;52.360;30.424;2023-04-30T06:46:57;0.3;0;0
74436;PMS7003;62868;52.360;30.424;2023-04-30T06:51:49;2;1.7;1.3
74436;PMS7003;62868;52.360;30.424;2023-04-30T06:56:23;0.3;0;0
74436;PMS7003;62868;52.360;30.424;2023-04-30T07:01:23;0;0;0
74436;PMS7003;62868;52.360;30.424;2023-04-30T07:06:51;0;0;0
74436;PMS7003;62868;52.360;30.424;2023-04-30T07:11:59;0;0;0
74436;PMS7003;62868;52.360;30.424;2023-04-30T07:16:27;0;0;0
74436;PMS7003;62868;52.360;30.424;2023-04-30T07:21:17;0.3;0.3;0
74436;PMS7003;62868;52.360;30.424;2023-04-30T07:26:59;0.3;0;0
74436;PMS7003;62868;52.360;30.424;2023-04-30T07:31:37;0;0;0
74436;PMS7003;62868;52.360;30.424;2023-04-30T07:36:23;0;0;0
74436;PMS7003;62868;52.360;30.424;2023-04-30T07:41:23;0;0;0
74436;PMS7003;62868;52.360;30.424;2023-04-30T07:46:59;0;0;0
74436;PMS7003;62868;52.360;30.424;2023-04-30T07:51:23;0.3;0;0
74436;PMS7003;62868;52.360;30.424;2023-04-30T07:56:43;0;0;0
74436;PMS7003;62868;52.360;30.424;2023-04-30T08:01:51;0.3;0;0
74436;PMS7003;62868;52.360;30.424;2023-04-30T08:06:25;0;0;0
74436;PMS7003;62868;52.360;30.424;2023-04-30T08:11:35;0;0;0
74436;PMS7003;62868;52.360;30.424;2023-04-30T08:16:45;0;0;0
74436;PMS7003;62868;52.360;30.424;2023-04-30T08:21:59;0;0;0
74436;PMS7003;62868;52.360;30.424;2023-04-30T08:26:59;0;0;0
74436;PMS7003;62868;52.360;30.424;2023-04-30T08:31:09;0;0;0
74436;PMS7003;62868;52.360;30.424;2023-04-30T08:36:59;0;0;0
74436;PMS7003;62868;52.360;30.424;2023-04-30T08:41:49;0;0;0
74436;PMS7003;62868;52.360;30.424;2023-04-30T08:46:09;0;0;0
74436;PMS7003;62868;52.360;30.424;2023-04-30T08:51:09;0;0;0
74436;PMS7003;62868;52.360;30.424;2023-04-30T08:56:59;0;0;0
74436;PMS7003;62868;52.360;30.424;2023-04-30T09:01:29;0;0;0
74436;PMS7003;62868;52.360;30.424;2023-04-30T09:06:45;0;0;0
74436;PMS7003;62868;52.360;30.424;2023-04-30T09:12:15;0;0;0
74436;PMS7003;62868;52.360;30.424;2023-04-30T09:16:43;0.5;0.5;0
74436;PMS7003;62868;52.360;30.424;2023-04-30T09:21:35;0.7;0.3;0.3
74436;PMS7003;62868;52.360;30.424;2023-04-30T09:26:37;0.7;0.7;0.7
74436;PMS7003;62868;52.360;30.424;2023-04-30T09:31:23;1.3;1;0.7
74436;PMS7003;62868;52.360;30.424;2023-04-30T09:36:51;6.3;5.8;5.3
74436;PMS7003;62868;52.360;30.424;2023-04-30T09:41:20;6;5.7;4.7
74436;PMS7003;62868;52.360;30.424;2023-04-30T09:46:17;2.7;2.3;1.7
74436;PMS7003;62868;52.360;30.424;2023-04-30T09:51:52;6;5.7;4.7
74436;PMS7003;62868;52.360;30.424;2023-04-30T09:56:59;2.3;2.3;2
74436;PMS7003;62868;52.360;30.424;2023-04-30T10:01:27;0;0;0
74436;PMS7003;62868;52.360;30.424;2023-04-30T10:06:35;0;0;0
74436;PMS7003;62868;52.360;30.424;2023-04-30T10:11:25;0;0;0
74436;PMS7003;62868;52.360;30.424;2023-04-30T10:16:58;0;0;0
74436;PMS7003;62868;52.360;30.424;2023-04-30T10:21:51;0;0;0
74436;PMS7003;62868;52.360;30.424;2023-04-30T10:26:59;0;0;0
74436;PMS7003;62868;52.360;30.424;2023-04-30T10:31:59;0;0;0
74436;PMS7003;62868;52.360;30.424;2023-04-30T10:36:38;0.3;0;0
74436;PMS7003;62868;52.360;30.424;2023-04-30T10:41:11;0;0;0
74436;PMS7003;62868;52.360;30.424;2023-04-30T10:46:11;0;0;0
74436;PMS7003;62868;52.360;30.424;2023-04-30T10:51:58;0;0;0
74436;PMS7003;62868;52.360;30.424;2023-04-30T10:56:11;0;0;0
74436;PMS7003;62868;52.360;30.424;2023-04-30T11:01:59;0;0;0
74436;PMS7003;62868;52.360;30.424;2023-04-30T11:07:01;0;0;0
74436;PMS7003;62868;52.360;30.424;2023-04-30T11:11:21;0;0;0
74436;PMS7003;62868;52.360;30.424;2023-04-30T11:16:35;0;0;0
74436;PMS7003;62868;52.360;30.424;2023-04-30T11:21:19;0;0;0
74436;PMS7003;62868;52.360;30.424;2023-04-30T11:26:29;0;0;0
74436;PMS7003;62868;52.360;30.424;2023-04-30T11:31:51;0;0;0
74436;PMS7003;62868;52.360;30.424;2023-04-30T11:36:37;0;0;0
74436;PMS7003;62868;52.360;30.424;2023-04-30T11:42:00;0;0;0
74436;PMS7003;62868;52.360;30.424;2023-04-30T11:46:51;0;0;0
74436;PMS7003;62868;52.360;30.424;2023-04-30T11:51:15;0;0;0
74436;PMS7003;62868;52.360;30.424;2023-04-30T11:56:29;0;0;0
74436;PMS7003;62868;52.360;30.424;2023-04-30T12:01:59;0;0;0
74436;PMS7003;62868;52.360;30.424;2023-04-30T12:06:20;0;0;0
74436;PMS7003;62868;52.360;30.424;2023-04-30T12:11:59;0;0;0
74436;PMS7003;62868;52.360;30.424;2023-04-30T12:16:59;0;0;0
74436;PMS7003;62868;52.360;30.424;2023-04-30T12:21:11;0.3;0;0
74436;PMS7003;62868;52.360;30.424;2023-04-30T12:26:33;0;0;0
74436;PMS7003;62868;52.360;30.424;2023-04-30T12:31:37;0;0;0
74436;PMS7003;62868;52.360;30.424;2023-04-30T12:36:11;0.3;0;0
74436;PMS7003;62868;52.360;30.424;2023-04-30T12:41:58;0;0;0
74436;PMS7003;62868;52.360;30.424;2023-04-30T12:46:11;0;0;0
74436;PMS7003;62868;52.360;30.424;2023-04-30T12:51:29;0;0;0
74436;PMS7003;62868;52.360;30.424;2023-04-30T12:56:55;0;0;0
74436;PMS7003;62868;52.360;30.424;2023-04-30T13:02:05;0;0;0
74436;PMS7003;62868;52.360;30.424;2023-04-30T13:06:11;0;0;0
74436;PMS7003;62868;52.360;30.424;2023-04-30T13:11:11;0;0;0
74436;PMS7003;62868;52.360;30.424;2023-04-30T13:16:11;0;0;0
74436;PMS7003;62868;52.360;30.424;2023-04-30T13:21:59;0.7;0.7;0
74436;PMS7003;62868;52.360;30.424;2023-04-30T13:26:23;0;0;0
74436;PMS7003;62868;52.360;30.424;2023-04-30T13:31:59;0.7;0.3;0.3
74436;PMS7003;62868;52.360;30.424;2023-04-30T13:36:59;1;1;0.3
74436;PMS7003;62868;52.360;30.424;2023-04-30T13:41:35;0.3;0.3;0.3
74436;PMS7003;62868;52.360;30.424;2023-04-30T13:46:23;1;0.8;0.8
74436;PMS7003;62868;52.360;30.424;2023-04-30T13:51:29;0;0;0
74436;PMS7003;62868;52.360;30.424;2023-04-30T13:56:59;0;0;0
74436;PMS7003;62868;52.360;30.424;2023-04-30T14:01:25;1.7;1.3;1
74436;PMS7003;62868;52.360;30.424;2023-04-30T14:06:57;1;0.8;0.8
74436;PMS7003;62868;52.360;30.424;2023-04-30T14:11:57;1.3;1;1
74436;PMS7003;62868;52.360;30.424;2023-04-30T14:16:49;0.3;0.3;0
74436;PMS7003;62868;52.360;30.424;2023-04-30T14:21:27;0;0;0
74436;PMS7003;62868;52.360;30.424;2023-04-30T14:26:45;0.8;0.3;0.3
74436;PMS7003;62868;52.360;30.424;2023-04-30T14:31:57;0.7;0.7;0.7
74436;PMS7003;62868;52.360;30.424;2023-04-30T14:36:49;0.3;0.3;0.3
74436;PMS7003;62868;52.360;30.424;2023-04-30T14:41:25;1.5;1;0.8
74436;PMS7003;62868;52.360;30.424;2023-04-30T14:46:57;0;0;0
74436;PMS7003;62868;52.360;30.424;2023-04-30T14:51:41;0;0;0
74436;PMS7003;62868;52.360;30.424;2023-04-30T14:56:57;0.3;0;0
74436;PMS7003;62868;52.360;30.424;2023-04-30T15:01:29;0.3;0;0
74436;PMS7003;62868;52.360;30.424;2023-04-30T15:06:57;0;0;0
74436;PMS7003;62868;52.360;30.424;2023-04-30T15:11:17;0;0;0
74436;PMS7003;62868;52.360;30.424;2023-04-30T15:16:45;0.3;0;0
74436;PMS7003;62868;52.360;30.424;2023-04-30T15:21:45;0;0;0
74436;PMS7003;62868;52.360;30.424;2023-04-30T15:26:11;0;0;0
74436;PMS7003;62868;52.360;30.424;2023-04-30T15:31:41;0;0;0
74436;PMS7003;62868;52.360;30.424;2023-04-30T15:36:11;0.3;0.3;0.3
74436;PMS7003;62868;52.360;30.424;2023-04-30T15:41:17;0.3;0;0
74436;PMS7003;62868;52.360;30.424;2023-04-30T15:46:49;0;0;0
74436;PMS7003;62868;52.360;30.424;2023-04-30T15:51:57;0;0;0
74436;PMS7003;62868;52.360;30.424;2023-04-30T15:56:23;0;0;0
74436;PMS7003;62868;52.360;30.424;2023-04-30T16:01:39;0;0;0
74436;PMS7003;62868;52.360;30.424;2023-04-30T16:06:49;0;0;0
74436;PMS7003;62868;52.360;30.424;2023-04-30T16:11:23;0;0;0
74436;PMS7003;62868;52.360;30.424;2023-04-30T16:16:33;0;0;0
74436;PMS7003;62868;52.360;30.424;2023-04-30T16:21:11;0;0;0
74436;PMS7003;62868;52.360;30.424;2023-04-30T16:26:57;0;0;0
74436;PMS7003;62868;52.360;30.424;2023-04-30T16:31:21;0.3;0;0
74436;PMS7003;62868;52.360;30.424;2023-04-30T16:36:11;0.5;0;0
74436;PMS7003;62868;52.360;30.424;2023-04-30T16:41:59;1;0.3;0.3
74436;PMS7003;62868;52.360;30.424;2023-04-30T16:46:37;0;0;0
74436;PMS7003;62868;52.360;30.424;2023-04-30T16:51:31;0.7;0.7;0
74436;PMS7003;62868;52.360;30.424;2023-04-30T16:56:31;0;0;0
74436;PMS7003;62868;52.360;30.424;2023-04-30T17:01:55;0.3;0.3;0
74436;PMS7003;62868;52.360;30.424;2023-04-30T17:06:23;0;0;0
74436;PMS7003;62868;52.360;30.424;2023-04-30T17:11:57;1;0.3;0.3
74436;PMS7003;62868;52.360;30.424;2023-04-30T17:16:57;3;2.3;1.5
74436;PMS7003;62868;52.360;30.424;2023-04-30T17:21:41;8.7;7.3;5
74436;PMS7003;62868;52.360;30.424;2023-04-30T17:26:11;5;4.3;3.3
74436;PMS7003;62868;52.360;30.424;2023-04-30T17:31:57;4.3;3.7;3
74436;PMS7003;62868;52.360;30.424;2023-04-30T17:36:49;2.5;2.3;1.5
74436;PMS7003;62868;52.360;30.424;2023-04-30T17:41:57;4;3;2
74436;PMS7003;62868;52.360;30.424;2023-04-30T17:46:45;2;1.7;1.3
74436;PMS7003;62868;52.360;30.424;2023-04-30T17:51:41;2.3;1.7;1.3
74436;PMS7003;62868;52.360;30.424;2023-04-30T17:56:57;3;2.5;1.8
74436;PMS7003;62868;52.360;30.424;2023-04-30T18:01:11;3;2.7;1.3
74436;PMS7003;62868;52.360;30.424;2023-04-30T18:06:11;2.7;2.7;2.3
74436;PMS7003;62868;52.360;30.424;2023-04-30T18:11:41;2.7;2.3;1.3
74436;PMS7003;62868;52.360;30.424;2023-04-30T18:16:21;2;1.8;1.5
74436;PMS7003;62868;52.360;30.424;2023-04-30T18:21:57;1;0.7;0.3
74436;PMS7003;62868;52.360;30.424;2023-04-30T18:26:39;0.7;0;0
74436;PMS7003;62868;52.360;30.424;2023-04-30T18:31:11;1.8;1;0.8
74436;PMS7003;62868;52.360;30.424;2023-04-30T18:36:41;1.3;1;0.7
74436;PMS7003;62868;52.360;30.424;2023-04-30T18:41:37;1;1;1
74436;PMS7003;62868;52.360;30.424;2023-04-30T18:46:23;1;0.7;0.7
74436;PMS7003;62868;52.360;30.424;2023-04-30T18:51:25;1;0.8;0.5
74436;PMS7003;62868;52.360;30.424;2023-04-30T18:56:57;1.3;1;0.7
74436;PMS7003;62868;52.360;30.424;2023-04-30T19:01:24;1.3;1;1
74436;PMS7003;62868;52.360;30.424;2023-04-30T19:06:41;1;1;1
74436;PMS7003;62868;52.360;30.424;2023-04-30T19:11:49;1.8;0.8;0.5
74436;PMS7003;62868;52.360;30.424;2023-04-30T19:16:13;1.7;1;1
74436;PMS7003;62868;52.360;30.424;2023-04-30T19:21:33;2;1.7;1.3
74436;PMS7003;62868;52.360;30.424;2023-04-30T19:26:45;2.3;2;1.3
74436;PMS7003;62868;52.360;30.424;2023-04-30T19:31:57;2.3;1.5;1.3
74436;PMS7003;62868;52.360;30.424;2023-04-30T19:36:57;2.3;1.7;1
74436;PMS7003;62868;52.360;30.424;2023-04-30T19:41:29;2.3;2;1.7
74436;PMS7003;62868;52.360;30.424;2023-04-30T19:46:41;4.7;3.7;2.7
74436;PMS7003;62868;52.360;30.424;2023-04-30T19:51:49;3.5;3.3;2.8
74436;PMS7003;62868;52.360;30.424;2023-04-30T19:56:23;3.7;2.7;2
74436;PMS7003;62868;52.360;30.424;2023-04-30T20:01:27;2.7;2.3;2
74436;PMS7003;62868;52.360;30.424;2023-04-30T20:06:55;3.7;2.7;2
74436;PMS7003;62868;52.360;30.424;2023-04-30T20:11:25;2.3;1.8;1.3
74436;PMS7003;62868;52.360;30.424;2023-04-30T20:16:46;2;1.3;1
74436;PMS7003;62868;52.360;30.424;2023-04-30T20:21:57;1;1;0.7
74436;PMS7003;62868;52.360;30.424;2023-04-30T20:26:11;0.3;0;0
74436;PMS7003;62868;52.360;30.424;2023-04-30T20:31:33;0.7;0.3;0
74436;PMS7003;62868;52.360;30.424;2023-04-30T20:36:23;0.3;0;0
74436;PMS7003;62868;52.360;30.424;2023-04-30T20:41:41;1;0.7;0
74436;PMS7003;62868;52.360;30.424;2023-04-30T20:46:49;0.3;0;0
74436;PMS7003;62868;52.360;30.424;2023-04-30T20:51:11;0.3;0;0
74436;PMS7003;62868;52.360;30.424;2023-04-30T20:56:55;0;0;0
74436;PMS7003;62868;52.360;30.424;2023-04-30T21:01:41;0;0;0
74436;PMS7003;62868;52.360;30.424;2023-04-30T21:06:25;0.5;0;0
74436;PMS7003;62868;52.360;30.424;2023-04-30T21:11:31;0.3;0;0
74436;PMS7003;62868;52.360;30.424;2023-04-30T21:16:59;1;0;0
74436;PMS7003;62868;52.360;30.424;2023-04-30T21:21:11;0;0;0
74436;PMS7003;62868;52.360;30.424;2023-04-30T21:26:46;0;0;0
74436;PMS7003;62868;52.360;30.424;2023-04-30T21:31:45;0;0;0
74436;PMS7003;62868;52.360;30.424;2023-04-30T21:36:11;0;0;0
74436;PMS7003;62868;52.360;30.424;2023-04-30T21:41:41;0;0;0
74436;PMS7003;62868;52.360;30.424;2023-04-30T21:46:43;0;0;0
74436;PMS7003;62868;52.360;30.424;2023-04-30T21:51:23;0;0;0
74436;PMS7003;62868;52.360;30.424;2023-04-30T21:56:49;0;0;0
74436;PMS7003;62868;52.360;30.424;2023-04-30T22:01:57;0.3;0;0
74436;PMS7003;62868;52.360;30.424;2023-04-30T22:06:23;0.3;0;0
74436;PMS7003;62868;52.360;30.424;2023-04-30T22:11:57;0.3;0;0
74436;PMS7003;62868;52.360;30.424;2023-04-30T22:16:49;0;0;0
74436;PMS7003;62868;52.360;30.424;2023-04-30T22:21:39;0;0;0
74436;PMS7003;62868;52.360;30.424;2023-04-30T22:26:33;0.7;0.3;0
74436;PMS7003;62868;52.360;30.424;2023-04-30T22:31:45;0;0;0
74436;PMS7003;62868;52.360;30.424;2023-04-30T22:36:57;0.7;0.3;0
74436;PMS7003;62868;52.360;30.424;2023-04-30T22:41:57;0;0;0
74436;PMS7003;62868;52.360;30.424;2023-04-30T22:46:11;0;0;0
74436;PMS7003;62868;52.360;30.424;2023-04-30T22:51:55;0;0;0
74436;PMS7003;62868;52.360;30.424;2023-04-30T22:56:49;0;0;0
74436;PMS7003;62868;52.360;30.424;2023-04-30T23:01:11;0;0;0
74436;PMS7003;62868;52.360;30.424;2023-04-30T23:06:29;0;0;0
74436;PMS7003;62868;52.360;30.424;2023-04-30T23:11:57;0.3;0;0
74436;PMS7003;62868;52.360;30.424;2023-04-30T23:16:45;0;0;0
74436;PMS7003;62868;52.360;30.424;2023-04-30T23:21:45;0;0;0
74436;PMS7003;62868;52.360;30.424;2023-04-30T23:26:57;0.3;0;0
74436;PMS7003;62868;52.360;30.424;2023-04-30T23:31:39;0.7;0;0
74436;PMS7003;62868;52.360;30.424;2023-04-30T23:36:33;0.3;0;0
74436;PMS7003;62868;52.360;30.424;2023-04-30T23:41:37;0;0;0
74436;PMS7003;62868;52.360;30.424;2023-04-30T23:46:11;0.3;0;0
74436;PMS7003;62868;52.360;30.424;2023-04-30T23:51:39;0;0;0
74436;PMS7003;62868;52.360;30.424;2023-04-30T23:56:35;0;0;0
